sensor_id;sensor_type;location;lat;lon;timestamp;pressure;altitude;pressure_sealevel;temperature;humidity
41636;BME280;27623;51.966;4.602;2023-01-10T00:02:19;64057.41;;;7.88;93.06
41636;BME280;27623;51.966;4.602;2023-01-10T00:04:45;64084.78;;;7.87;92.47
41636;BME280;27623;51.966;4.602;2023-01-10T00:07:11;64117.56;;;7.99;92.46
41636;BME280;27623;51.966;4.602;2023-01-10T00:09:37;64064.28;;;7.92;92.88
41636;BME280;27623;51.966;4.602;2023-01-10T00:12:02;64060.13;;;7.83;92.82
41636;BME280;27623;51.966;4.602;2023-01-10T00:14:48;64063.03;;;7.81;93.16
41636;BME280;27623;51.966;4.602;2023-01-10T00:17:13;64070.66;;;7.88;93.31
41636;BME280;27623;51.966;4.602;2023-01-10T00:19:39;64069.91;;;8.00;93.09
41636;BME280;27623;51.966;4.602;2023-01-10T00:22:04;64076.78;;;7.97;92.95
41636;BME280;27623;51.966;4.602;2023-01-10T00:24:30;64096.19;;;7.98;93.22
41636;BME280;27623;51.966;4.602;2023-01-10T00:26:56;64125.56;;;8.11;93.60
41636;BME280;27623;51.966;4.602;2023-01-10T00:29:27;64092.38;;;8.02;92.78
41636;BME280;27623;51.966;4.602;2023-01-10T00:31:54;64084.94;;;7.97;93.95
41636;BME280;27623;51.966;4.602;2023-01-10T00:34:19;64102.72;;;8.04;94.36
41636;BME280;27623;51.966;4.602;2023-01-10T00:36:46;64099.63;;;8.11;92.95
41636;BME280;27623;51.966;4.602;2023-01-10T00:39:12;64082.78;;;8.02;92.96
41636;BME280;27623;51.966;4.602;2023-01-10T00:41:39;64093.09;;;7.98;93.11
41636;BME280;27623;51.966;4.602;2023-01-10T00:44:23;64110.53;;;8.07;92.36
41636;BME280;27623;51.966;4.602;2023-01-10T00:46:50;64080.06;;;8.00;92.08
41636;BME280;27623;51.966;4.602;2023-01-10T00:49:16;64078.78;;;8.03;93.23
41636;BME280;27623;51.966;4.602;2023-01-10T00:51:42;64084.41;;;8.11;93.56
41636;BME280;27623;51.966;4.602;2023-01-10T00:54:08;64121.03;;;8.05;93.17
41636;BME280;27623;51.966;4.602;2023-01-10T00:56:35;64076.44;;;8.06;92.21
41636;BME280;27623;51.966;4.602;2023-01-10T00:59:01;64102.91;;;8.07;93.09
41636;BME280;27623;51.966;4.602;2023-01-10T01:01:26;64105.25;;;8.11;93.10
41636;BME280;27623;51.966;4.602;2023-01-10T01:03:51;64094.19;;;7.99;92.60
41636;BME280;27623;51.966;4.602;2023-01-10T01:06:17;64094.75;;;8.06;91.91
41636;BME280;27623;51.966;4.602;2023-01-10T01:08:43;64091.13;;;8.05;92.34
41636;BME280;27623;51.966;4.602;2023-01-10T01:11:08;64074.28;;;8.04;92.29
41636;BME280;27623;51.966;4.602;2023-01-10T01:13:34;64100.00;;;8.09;91.72
41636;BME280;27623;51.966;4.602;2023-01-10T01:16:00;64140.25;;;8.18;91.60
41636;BME280;27623;51.966;4.602;2023-01-10T01:18:26;64085.88;;;8.10;92.01
41636;BME280;27623;51.966;4.602;2023-01-10T01:20:53;64090.75;;;8.07;92.57
41636;BME280;27623;51.966;4.602;2023-01-10T01:23:21;64080.44;;;8.19;92.52
41636;BME280;27623;51.966;4.602;2023-01-10T01:25:51;64126.13;;;8.26;92.87
41636;BME280;27623;51.966;4.602;2023-01-10T01:28:17;64146.06;;;8.21;92.94
41636;BME280;27623;51.966;4.602;2023-01-10T01:30:42;64093.47;;;8.24;93.20
41636;BME280;27623;51.966;4.602;2023-01-10T01:33:08;64112.88;;;8.18;93.20
41636;BME280;27623;51.966;4.602;2023-01-10T01:35:33;64100.00;;;8.23;93.68
41636;BME280;27623;51.966;4.602;2023-01-10T01:37:59;64151.31;;;8.16;92.92
41636;BME280;27623;51.966;4.602;2023-01-10T01:40:24;64137.91;;;8.20;94.46
41636;BME280;27623;51.966;4.602;2023-01-10T01:42:50;64111.06;;;8.21;94.03
41636;BME280;27623;51.966;4.602;2023-01-10T01:47:57;64059.03;;;8.18;93.41
41636;BME280;27623;51.966;4.602;2023-01-10T01:55:44;64119.22;;;8.15;94.39
41636;BME280;27623;51.966;4.602;2023-01-10T01:58:15;64128.28;;;8.21;94.23
41636;BME280;27623;51.966;4.602;2023-01-10T02:00:42;64100.56;;;8.23;92.97
41636;BME280;27623;51.966;4.602;2023-01-10T02:03:09;64109.09;;;8.29;93.42
41636;BME280;27623;51.966;4.602;2023-01-10T02:05:37;64112.88;;;8.18;93.24
41636;BME280;27623;51.966;4.602;2023-01-10T02:08:03;64102.53;;;8.16;94.24
41636;BME280;27623;51.966;4.602;2023-01-10T02:10:50;64095.28;;;8.21;93.62
41636;BME280;27623;51.966;4.602;2023-01-10T02:13:19;64098.19;;;8.19;93.68
41636;BME280;27623;51.966;4.602;2023-01-10T02:15:46;64088.41;;;8.17;93.95
41636;BME280;27623;51.966;4.602;2023-01-10T02:18:12;64092.75;;;8.28;94.27
41636;BME280;27623;51.966;4.602;2023-01-10T02:33:03;64119.22;;;8.29;93.96
41636;BME280;27623;51.966;4.602;2023-01-10T02:38:03;64117.06;;;8.27;94.76
41636;BME280;27623;51.966;4.602;2023-01-10T02:41:00;64102.72;;;8.25;94.88
41636;BME280;27623;51.966;4.602;2023-01-10T02:43:34;64120.31;;;8.30;94.14
41636;BME280;27623;51.966;4.602;2023-01-10T02:46:08;64096.03;;;8.24;94.71
41636;BME280;27623;51.966;4.602;2023-01-10T02:48:37;64098.72;;;8.19;94.35
41636;BME280;27623;51.966;4.602;2023-01-10T02:51:15;64105.81;;;8.26;94.75
41636;BME280;27623;51.966;4.602;2023-01-10T02:53:46;64112.88;;;8.25;94.98
41636;BME280;27623;51.966;4.602;2023-01-10T03:07:38;64084.41;;;8.11;95.34
41636;BME280;27623;51.966;4.602;2023-01-10T03:10:22;64108.88;;;8.12;96.25
41636;BME280;27623;51.966;4.602;2023-01-10T03:13:00;64117.22;;;8.15;95.51
41636;BME280;27623;51.966;4.602;2023-01-10T03:15:32;64103.09;;;8.23;94.45
41636;BME280;27623;51.966;4.602;2023-01-10T03:18:01;64127.75;;;8.20;94.81
41636;BME280;27623;51.966;4.602;2023-01-10T03:20:31;64106.00;;;8.21;96.13
41636;BME280;27623;51.966;4.602;2023-01-10T03:23:00;64114.69;;;8.22;97.04
41636;BME280;27623;51.966;4.602;2023-01-10T03:25:30;64090.56;;;8.12;96.11
41636;BME280;27623;51.966;4.602;2023-01-10T03:28:09;64108.34;;;8.19;96.30
41636;BME280;27623;51.966;4.602;2023-01-10T03:30:47;64104.00;;;8.15;97.17
41636;BME280;27623;51.966;4.602;2023-01-10T03:33:20;64089.47;;;8.11;97.53
41636;BME280;27623;51.966;4.602;2023-01-10T03:38:35;64093.84;;;8.15;96.52
41636;BME280;27623;51.966;4.602;2023-01-10T03:43:58;64067.56;;;8.09;97.42
41636;BME280;27623;51.966;4.602;2023-01-10T03:46:50;64052.50;;;7.98;96.38
41636;BME280;27623;51.966;4.602;2023-01-10T03:49:21;64098.38;;;8.14;96.53
41636;BME280;27623;51.966;4.602;2023-01-10T03:51:49;64121.41;;;8.10;96.66
41636;BME280;27623;51.966;4.602;2023-01-10T03:54:15;64088.41;;;8.03;97.18
41636;BME280;27623;51.966;4.602;2023-01-10T03:56:49;64056.50;;;8.04;98.32
41636;BME280;27623;51.966;4.602;2023-01-10T03:59:21;64078.44;;;8.05;98.02
41636;BME280;27623;51.966;4.602;2023-01-10T04:01:49;64089.13;;;8.06;98.91
41636;BME280;27623;51.966;4.602;2023-01-10T04:04:14;64128.81;;;8.07;99.19
41636;BME280;27623;51.966;4.602;2023-01-10T04:06:40;64098.56;;;8.10;99.52
41636;BME280;27623;51.966;4.602;2023-01-10T04:09:06;64092.56;;;8.11;99.17
41636;BME280;27623;51.966;4.602;2023-01-10T04:11:32;64075.00;;;8.07;99.05
41636;BME280;27623;51.966;4.602;2023-01-10T04:13:57;64128.28;;;8.07;99.05
41636;BME280;27623;51.966;4.602;2023-01-10T04:16:23;64114.50;;;8.13;99.06
41636;BME280;27623;51.966;4.602;2023-01-10T04:18:49;64084.75;;;7.94;97.75
41636;BME280;27623;51.966;4.602;2023-01-10T04:21:14;64080.41;;;7.98;97.50
41636;BME280;27623;51.966;4.602;2023-01-10T04:23:40;64060.31;;;8.00;98.52
41636;BME280;27623;51.966;4.602;2023-01-10T04:26:05;64076.06;;;8.01;97.13
41636;BME280;27623;51.966;4.602;2023-01-10T04:28:31;64088.41;;;7.88;97.72
41636;BME280;27623;51.966;4.602;2023-01-10T04:30:59;64061.38;;;7.94;97.31
41636;BME280;27623;51.966;4.602;2023-01-10T04:33:25;64078.97;;;7.84;96.50
41636;BME280;27623;51.966;4.602;2023-01-10T04:35:52;64054.88;;;7.88;97.14
41636;BME280;27623;51.966;4.602;2023-01-10T04:38:20;64077.69;;;7.74;97.81
41636;BME280;27623;51.966;4.602;2023-01-10T04:40:53;64082.03;;;7.78;98.11
41636;BME280;27623;51.966;4.602;2023-01-10T04:43:19;64062.84;;;7.79;97.78
41636;BME280;27623;51.966;4.602;2023-01-10T04:45:46;64061.41;;;7.87;98.37
41636;BME280;27623;51.966;4.602;2023-01-10T04:48:11;63997.63;;;7.75;97.86
41636;BME280;27623;51.966;4.602;2023-01-10T04:50:39;64070.25;;;7.76;98.12
41636;BME280;27623;51.966;4.602;2023-01-10T04:53:05;64050.88;;;7.82;97.74
41636;BME280;27623;51.966;4.602;2023-01-10T04:55:32;64045.44;;;7.77;97.91
41636;BME280;27623;51.966;4.602;2023-01-10T04:57:57;64055.03;;;7.62;98.35
41636;BME280;27623;51.966;4.602;2023-01-10T05:00:23;64003.78;;;7.54;98.84
41636;BME280;27623;51.966;4.602;2023-01-10T05:02:54;64081.31;;;7.68;99.48
41636;BME280;27623;51.966;4.602;2023-01-10T05:05:19;64065.38;;;7.65;99.38
41636;BME280;27623;51.966;4.602;2023-01-10T05:07:45;64051.59;;;7.71;99.54
41636;BME280;27623;51.966;4.602;2023-01-10T05:10:11;64073.16;;;7.74;99.54
41636;BME280;27623;51.966;4.602;2023-01-10T05:12:37;64056.66;;;7.71;99.45
41636;BME280;27623;51.966;4.602;2023-01-10T05:15:05;64086.38;;;7.75;100.00
41636;BME280;27623;51.966;4.602;2023-01-10T05:17:31;64073.34;;;7.77;99.73
41636;BME280;27623;51.966;4.602;2023-01-10T05:19:56;64060.47;;;7.74;99.99
41636;BME280;27623;51.966;4.602;2023-01-10T05:22:22;64018.28;;;7.80;99.56
41636;BME280;27623;51.966;4.602;2023-01-10T05:24:47;64053.78;;;7.73;99.10
41636;BME280;27623;51.966;4.602;2023-01-10T05:27:14;64067.00;;;7.66;99.26
41636;BME280;27623;51.966;4.602;2023-01-10T05:29:40;64053.03;;;7.70;100.00
41636;BME280;27623;51.966;4.602;2023-01-10T05:32:05;64050.50;;;7.70;100.00
41636;BME280;27623;51.966;4.602;2023-01-10T05:34:31;64083.50;;;7.77;99.69
41636;BME280;27623;51.966;4.602;2023-01-10T05:36:57;64057.75;;;7.65;99.57
41636;BME280;27623;51.966;4.602;2023-01-10T05:39:22;64049.25;;;7.73;100.00
41636;BME280;27623;51.966;4.602;2023-01-10T05:41:47;64066.81;;;7.71;100.00
41636;BME280;27623;51.966;4.602;2023-01-10T05:44:13;64025.34;;;7.65;100.00
41636;BME280;27623;51.966;4.602;2023-01-10T05:46:39;64060.47;;;7.67;100.00
41636;BME280;27623;51.966;4.602;2023-01-10T05:49:04;64070.44;;;7.57;100.00
41636;BME280;27623;51.966;4.602;2023-01-10T05:51:30;64055.78;;;7.65;100.00
41636;BME280;27623;51.966;4.602;2023-01-10T05:53:55;64040.19;;;7.67;100.00
41636;BME280;27623;51.966;4.602;2023-01-10T05:56:22;64071.88;;;7.71;100.00
41636;BME280;27623;51.966;4.602;2023-01-10T05:58:48;64078.94;;;7.70;100.00
41636;BME280;27623;51.966;4.602;2023-01-10T06:01:13;64022.97;;;7.61;100.00
41636;BME280;27623;51.966;4.602;2023-01-10T06:03:39;64039.28;;;7.54;100.00
41636;BME280;27623;51.966;4.602;2023-01-10T06:06:07;64022.44;;;7.60;100.00
41636;BME280;27623;51.966;4.602;2023-01-10T06:08:32;64040.91;;;7.70;100.00
41636;BME280;27623;51.966;4.602;2023-01-10T06:10:58;64073.16;;;7.81;100.00
41636;BME280;27623;51.966;4.602;2023-01-10T06:13:24;64061.75;;;7.78;100.00
41636;BME280;27623;51.966;4.602;2023-01-10T06:15:49;64055.22;;;7.65;100.00
41636;BME280;27623;51.966;4.602;2023-01-10T06:18:15;64077.31;;;7.62;100.00
41636;BME280;27623;51.966;4.602;2023-01-10T06:20:44;64028.97;;;7.73;100.00
41636;BME280;27623;51.966;4.602;2023-01-10T06:23:09;64011.03;;;7.42;100.00
41636;BME280;27623;51.966;4.602;2023-01-10T06:25:36;64016.63;;;7.36;100.00
41636;BME280;27623;51.966;4.602;2023-01-10T06:28:04;64035.13;;;7.46;100.00
41636;BME280;27623;51.966;4.602;2023-01-10T06:30:30;64020.97;;;7.40;100.00
41636;BME280;27623;51.966;4.602;2023-01-10T06:33:03;64067.88;;;7.43;100.00
41636;BME280;27623;51.966;4.602;2023-01-10T06:35:29;63995.78;;;7.28;100.00
41636;BME280;27623;51.966;4.602;2023-01-10T06:37:54;64023.50;;;7.26;100.00
41636;BME280;27623;51.966;4.602;2023-01-10T06:40:20;64006.28;;;7.19;100.00
41636;BME280;27623;51.966;4.602;2023-01-10T06:42:45;64001.59;;;7.17;100.00
41636;BME280;27623;51.966;4.602;2023-01-10T06:45:10;63999.78;;;7.20;100.00
41636;BME280;27623;51.966;4.602;2023-01-10T06:47:36;63973.72;;;7.17;100.00
41636;BME280;27623;51.966;4.602;2023-01-10T06:50:03;64025.50;;;7.32;100.00
41636;BME280;27623;51.966;4.602;2023-01-10T06:52:31;63994.34;;;7.29;100.00
41636;BME280;27623;51.966;4.602;2023-01-10T06:54:57;63996.72;;;7.41;100.00
41636;BME280;27623;51.966;4.602;2023-01-10T06:57:23;63994.56;;;7.46;100.00
41636;BME280;27623;51.966;4.602;2023-01-10T06:59:48;64009.56;;;7.22;100.00
41636;BME280;27623;51.966;4.602;2023-01-10T07:02:14;64001.59;;;7.17;100.00
41636;BME280;27623;51.966;4.602;2023-01-10T07:04:39;63975.34;;;7.18;100.00
41636;BME280;27623;51.966;4.602;2023-01-10T07:07:04;63997.03;;;7.10;100.00
41636;BME280;27623;51.966;4.602;2023-01-10T07:09:30;64011.72;;;7.17;100.00
41636;BME280;27623;51.966;4.602;2023-01-10T07:11:55;64005.94;;;7.21;100.00
41636;BME280;27623;51.966;4.602;2023-01-10T07:14:21;64004.47;;;7.08;100.00
41636;BME280;27623;51.966;4.602;2023-01-10T07:16:47;63986.72;;;7.08;100.00
41636;BME280;27623;51.966;4.602;2023-01-10T07:19:13;63973.13;;;6.88;100.00
41636;BME280;27623;51.966;4.602;2023-01-10T07:21:40;64005.00;;;7.08;100.00
41636;BME280;27623;51.966;4.602;2023-01-10T07:24:06;64001.78;;;7.19;100.00
41636;BME280;27623;51.966;4.602;2023-01-10T07:26:32;63972.25;;;7.11;100.00
41636;BME280;27623;51.966;4.602;2023-01-10T07:28:58;63959.94;;;6.95;100.00
41636;BME280;27623;51.966;4.602;2023-01-10T07:31:23;63953.56;;;6.63;100.00
41636;BME280;27623;51.966;4.602;2023-01-10T07:33:54;63921.72;;;6.49;100.00
41636;BME280;27623;51.966;4.602;2023-01-10T07:36:20;63881.22;;;6.35;100.00
41636;BME280;27623;51.966;4.602;2023-01-10T07:38:47;63908.00;;;6.41;100.00
41636;BME280;27623;51.966;4.602;2023-01-10T07:41:13;63895.16;;;6.46;100.00
41636;BME280;27623;51.966;4.602;2023-01-10T07:43:38;63905.44;;;6.48;100.00
41636;BME280;27623;51.966;4.602;2023-01-10T07:46:06;63944.50;;;6.49;100.00
41636;BME280;27623;51.966;4.602;2023-01-10T07:48:37;63906.75;;;6.59;100.00
41636;BME280;27623;51.966;4.602;2023-01-10T07:51:04;63954.88;;;6.80;100.00
41636;BME280;27623;51.966;4.602;2023-01-10T07:53:30;63926.81;;;6.78;100.00
41636;BME280;27623;51.966;4.602;2023-01-10T07:56:00;63942.56;;;6.71;100.00
41636;BME280;27623;51.966;4.602;2023-01-10T07:58:30;63915.41;;;6.67;100.00
41636;BME280;27623;51.966;4.602;2023-01-10T08:01:00;63906.19;;;6.59;100.00
41636;BME280;27623;51.966;4.602;2023-01-10T08:03:26;63944.91;;;6.62;100.00
41636;BME280;27623;51.966;4.602;2023-01-10T08:06:05;63934.91;;;6.43;100.00
41636;BME280;27623;51.966;4.602;2023-01-10T08:08:32;63883.94;;;6.38;100.00
41636;BME280;27623;51.966;4.602;2023-01-10T08:10:58;63850.66;;;6.26;100.00
41636;BME280;27623;51.966;4.602;2023-01-10T08:13:24;63905.78;;;6.32;100.00
41636;BME280;27623;51.966;4.602;2023-01-10T08:15:50;63914.81;;;6.31;100.00
41636;BME280;27623;51.966;4.602;2023-01-10T08:18:17;63911.41;;;6.40;100.00
41636;BME280;27623;51.966;4.602;2023-01-10T08:20:42;63916.09;;;6.35;100.00
41636;BME280;27623;51.966;4.602;2023-01-10T08:23:08;63889.53;;;6.45;100.00
41636;BME280;27623;51.966;4.602;2023-01-10T08:25:34;63892.25;;;6.41;100.00
41636;BME280;27623;51.966;4.602;2023-01-10T08:28:00;63913.56;;;6.28;100.00
41636;BME280;27623;51.966;4.602;2023-01-10T08:30:28;63869.09;;;6.29;100.00
41636;BME280;27623;51.966;4.602;2023-01-10T08:32:54;63886.63;;;6.33;100.00
41636;BME280;27623;51.966;4.602;2023-01-10T08:35:20;63878.84;;;6.24;100.00
41636;BME280;27623;51.966;4.602;2023-01-10T08:37:46;63866.19;;;6.09;100.00
41636;BME280;27623;51.966;4.602;2023-01-10T08:40:11;63922.03;;;6.26;100.00
41636;BME280;27623;51.966;4.602;2023-01-10T08:42:37;63870.53;;;6.20;100.00
41636;BME280;27623;51.966;4.602;2023-01-10T08:45:04;63881.22;;;6.21;100.00
41636;BME280;27623;51.966;4.602;2023-01-10T08:47:29;63932.00;;;6.31;100.00
41636;BME280;27623;51.966;4.602;2023-01-10T08:49:55;63908.31;;;6.32;100.00
41636;BME280;27623;51.966;4.602;2023-01-10T08:52:20;63903.97;;;6.28;100.00
41636;BME280;27623;51.966;4.602;2023-01-10T08:54:46;63903.25;;;6.25;100.00
41636;BME280;27623;51.966;4.602;2023-01-10T08:57:11;63886.28;;;6.21;100.00
41636;BME280;27623;51.966;4.602;2023-01-10T08:59:37;63885.38;;;6.30;100.00
41636;BME280;27623;51.966;4.602;2023-01-10T09:02:03;63935.47;;;6.43;100.00
41636;BME280;27623;51.966;4.602;2023-01-10T09:04:29;63948.47;;;6.48;100.00
41636;BME280;27623;51.966;4.602;2023-01-10T09:06:55;63930.25;;;6.62;100.00
41636;BME280;27623;51.966;4.602;2023-01-10T09:09:22;63943.97;;;6.49;100.00
41636;BME280;27623;51.966;4.602;2023-01-10T09:11:47;63921.38;;;6.51;100.00
41636;BME280;27623;51.966;4.602;2023-01-10T09:14:14;63895.88;;;6.42;100.00
41636;BME280;27623;51.966;4.602;2023-01-10T09:16:39;63916.66;;;6.35;100.00
41636;BME280;27623;51.966;4.602;2023-01-10T09:19:05;63889.53;;;6.31;100.00
41636;BME280;27623;51.966;4.602;2023-01-10T09:21:31;63872.19;;;6.22;100.00
41636;BME280;27623;51.966;4.602;2023-01-10T09:23:59;63870.53;;;6.13;100.00
41636;BME280;27623;51.966;4.602;2023-01-10T09:26:24;63873.97;;;6.19;100.00
41636;BME280;27623;51.966;4.602;2023-01-10T09:28:50;63887.34;;;6.15;100.00
41636;BME280;27623;51.966;4.602;2023-01-10T09:31:15;63893.31;;;6.20;100.00
41636;BME280;27623;51.966;4.602;2023-01-10T09:33:43;63867.78;;;6.04;100.00
41636;BME280;27623;51.966;4.602;2023-01-10T09:36:09;63882.25;;;6.08;100.00
41636;BME280;27623;51.966;4.602;2023-01-10T09:38:37;63869.97;;;5.99;100.00
41636;BME280;27623;51.966;4.602;2023-01-10T09:52:03;63846.25;;;5.86;100.00
41636;BME280;27623;51.966;4.602;2023-01-10T09:54:41;63863.44;;;5.93;100.00
41636;BME280;27623;51.966;4.602;2023-01-10T09:57:15;63862.94;;;5.99;100.00
41636;BME280;27623;51.966;4.602;2023-01-10T09:59:41;63866.00;;;6.14;100.00
41636;BME280;27623;51.966;4.602;2023-01-10T10:04:39;63843.38;;;5.88;100.00
41636;BME280;27623;51.966;4.602;2023-01-10T10:07:12;63850.22;;;5.78;100.00
41636;BME280;27623;51.966;4.602;2023-01-10T10:09:38;63886.03;;;6.04;100.00
41636;BME280;27623;51.966;4.602;2023-01-10T10:27:27;63843.97;;;6.10;100.00
41636;BME280;27623;51.966;4.602;2023-01-10T10:30:23;63813.94;;;5.86;100.00
41636;BME280;27623;51.966;4.602;2023-01-10T10:33:26;63825.72;;;5.95;100.00
41636;BME280;27623;51.966;4.602;2023-01-10T10:36:03;63881.34;;;6.09;100.00
41636;BME280;27623;51.966;4.602;2023-01-10T10:38:36;63896.53;;;6.09;100.00
41636;BME280;27623;51.966;4.602;2023-01-10T10:41:04;63857.69;;;5.97;100.00
41636;BME280;27623;51.966;4.602;2023-01-10T10:43:38;63858.22;;;5.97;100.00
41636;BME280;27623;51.966;4.602;2023-01-10T10:46:08;63868.53;;;6.14;100.00
41636;BME280;27623;51.966;4.602;2023-01-10T10:49:04;63867.78;;;6.04;100.00
41636;BME280;27623;51.966;4.602;2023-01-10T10:51:40;63875.22;;;6.08;100.00
41636;BME280;27623;51.966;4.602;2023-01-10T10:54:11;63899.25;;;6.12;100.00
41636;BME280;27623;51.966;4.602;2023-01-10T10:56:38;63869.81;;;6.10;100.00
41636;BME280;27623;51.966;4.602;2023-01-10T10:59:04;63871.25;;;6.24;100.00
41636;BME280;27623;51.966;4.602;2023-01-10T11:01:29;63897.81;;;6.20;100.00
41636;BME280;27623;51.966;4.602;2023-01-10T11:06:24;63866.00;;;6.14;100.00
41636;BME280;27623;51.966;4.602;2023-01-10T11:08:53;63874.28;;;5.96;100.00
41636;BME280;27623;51.966;4.602;2023-01-10T11:11:24;63900.84;;;6.06;100.00
41636;BME280;27623;51.966;4.602;2023-01-10T11:13:57;63900.53;;;6.15;100.00
41636;BME280;27623;51.966;4.602;2023-01-10T11:16:28;63884.44;;;6.24;100.00
41636;BME280;27623;51.966;4.602;2023-01-10T11:19:24;63885.53;;;6.25;100.00
41636;BME280;27623;51.966;4.602;2023-01-10T11:21:58;63912.81;;;6.25;100.00
41636;BME280;27623;51.966;4.602;2023-01-10T11:26:52;63903.81;;;6.40;100.00
41636;BME280;27623;51.966;4.602;2023-01-10T11:29:23;63884.81;;;6.15;100.00
41636;BME280;27623;51.966;4.602;2023-01-10T11:31:50;63902.34;;;6.19;100.00
41636;BME280;27623;51.966;4.602;2023-01-10T11:34:34;63888.44;;;6.23;100.00
41636;BME280;27623;51.966;4.602;2023-01-10T11:39:43;63888.25;;;6.28;100.00
41636;BME280;27623;51.966;4.602;2023-01-10T11:44:49;63891.00;;;6.37;100.00
41636;BME280;27623;51.966;4.602;2023-01-10T11:47:15;63882.13;;;6.41;100.00
41636;BME280;27623;51.966;4.602;2023-01-10T11:49:45;63906.16;;;6.44;100.00
41636;BME280;27623;51.966;4.602;2023-01-10T11:52:27;63929.47;;;6.45;100.00
41636;BME280;27623;51.966;4.602;2023-01-10T11:54:58;63897.31;;;6.41;100.00
41636;BME280;27623;51.966;4.602;2023-01-10T11:57:26;63884.47;;;6.45;100.00
41636;BME280;27623;51.966;4.602;2023-01-10T12:04:50;63943.25;;;6.60;100.00
41636;BME280;27623;51.966;4.602;2023-01-10T12:07:16;63905.66;;;6.58;100.00
41636;BME280;27623;51.966;4.602;2023-01-10T12:09:59;63940.38;;;6.76;100.00
41636;BME280;27623;51.966;4.602;2023-01-10T12:12:29;63913.06;;;6.63;100.00
41636;BME280;27623;51.966;4.602;2023-01-10T12:14:57;63939.09;;;6.66;100.00
41636;BME280;27623;51.966;4.602;2023-01-10T12:19:52;63935.13;;;6.60;100.00
41636;BME280;27623;51.966;4.602;2023-01-10T12:22:23;63906.19;;;6.59;100.00
41636;BME280;27623;51.966;4.602;2023-01-10T12:24:52;63928.25;;;6.70;100.00
41636;BME280;27623;51.966;4.602;2023-01-10T12:27:18;63934.22;;;6.61;100.00
41636;BME280;27623;51.966;4.602;2023-01-10T12:30:10;63939.28;;;6.68;100.00
41636;BME280;27623;51.966;4.602;2023-01-10T12:32:43;63932.78;;;6.69;100.00
41636;BME280;27623;51.966;4.602;2023-01-10T12:35:18;63931.34;;;6.77;100.00
41636;BME280;27623;51.966;4.602;2023-01-10T12:37:52;63985.25;;;6.80;100.00
41636;BME280;27623;51.966;4.602;2023-01-10T12:40:46;63934.25;;;6.82;100.00
41636;BME280;27623;51.966;4.602;2023-01-10T12:43:33;63969.69;;;6.89;100.00
41636;BME280;27623;51.966;4.602;2023-01-10T12:46:23;63951.63;;;6.84;100.00
41636;BME280;27623;51.966;4.602;2023-01-10T12:48:55;63950.34;;;6.81;100.00
41636;BME280;27623;51.966;4.602;2023-01-10T12:51:26;63950.50;;;6.76;100.00
41636;BME280;27623;51.966;4.602;2023-01-10T12:53:56;63952.72;;;6.85;100.00
41636;BME280;27623;51.966;4.602;2023-01-10T12:56:25;63955.75;;;6.86;100.00
41636;BME280;27623;51.966;4.602;2023-01-10T12:58:54;63943.28;;;6.88;100.00
41636;BME280;27623;51.966;4.602;2023-01-10T13:01:26;63951.44;;;6.89;100.00
41636;BME280;27623;51.966;4.602;2023-01-10T13:04:04;63936.03;;;6.86;100.00
41636;BME280;27623;51.966;4.602;2023-01-10T13:06:32;63966.81;;;6.84;100.00
41636;BME280;27623;51.966;4.602;2023-01-10T13:09:04;63938.41;;;6.84;100.00
41636;BME280;27623;51.966;4.602;2023-01-10T13:11:36;63952.16;;;6.85;100.00
41636;BME280;27623;51.966;4.602;2023-01-10T13:14:06;63948.91;;;6.82;100.00
41636;BME280;27623;51.966;4.602;2023-01-10T13:16:43;63963.72;;;6.77;100.00
41636;BME280;27623;51.966;4.602;2023-01-10T13:21:36;63936.06;;;6.79;100.00
41636;BME280;27623;51.966;4.602;2023-01-10T13:24:15;63932.06;;;6.73;100.00
41636;BME280;27623;51.966;4.602;2023-01-10T13:26:57;63929.88;;;6.71;100.00
41636;BME280;27623;51.966;4.602;2023-01-10T13:29:25;63950.16;;;6.64;100.00
41636;BME280;27623;51.966;4.602;2023-01-10T13:31:53;63960.09;;;6.76;100.00
41636;BME280;27623;51.966;4.602;2023-01-10T13:34:31;63910.72;;;6.65;100.00
41636;BME280;27623;51.966;4.602;2023-01-10T13:37:11;63942.38;;;6.69;100.00
41636;BME280;27623;51.966;4.602;2023-01-10T13:39:39;63954.66;;;6.64;100.00
41636;BME280;27623;51.966;4.602;2023-01-10T13:42:12;63938.19;;;6.67;100.00
41636;BME280;27623;51.966;4.602;2023-01-10T14:00:40;63916.69;;;6.64;100.00
41636;BME280;27623;51.966;4.602;2023-01-10T14:08:53;63940.91;;;6.63;100.00
41636;BME280;27623;51.966;4.602;2023-01-10T14:11:22;63905.84;;;6.68;100.00
41636;BME280;27623;51.966;4.602;2023-01-10T14:13:55;63951.78;;;6.73;100.00
41636;BME280;27623;51.966;4.602;2023-01-10T14:16:37;63951.59;;;6.77;100.00
41636;BME280;27623;51.966;4.602;2023-01-10T14:19:18;63906.56;;;6.64;100.00
41636;BME280;27623;51.966;4.602;2023-01-10T14:21:51;63954.66;;;6.71;100.00
41636;BME280;27623;51.966;4.602;2023-01-10T14:26:59;63920.28;;;6.50;100.00
41636;BME280;27623;51.966;4.602;2023-01-10T14:29:31;63940.34;;;6.55;100.00
41636;BME280;27623;51.966;4.602;2023-01-10T14:31:58;63921.75;;;6.57;100.00
41636;BME280;27623;51.966;4.602;2023-01-10T14:34:27;63959.38;;;6.73;100.00
41636;BME280;27623;51.966;4.602;2023-01-10T14:37:03;63932.78;;;6.69;100.00
41636;BME280;27623;51.966;4.602;2023-01-10T14:39:35;63911.97;;;6.47;100.00
41636;BME280;27623;51.966;4.602;2023-01-10T14:42:06;63927.31;;;6.50;100.00
41636;BME280;27623;51.966;4.602;2023-01-10T14:44:46;63921.19;;;6.56;100.00
41636;BME280;27623;51.966;4.602;2023-01-10T14:47:29;63953.94;;;6.68;100.00
41636;BME280;27623;51.966;4.602;2023-01-10T14:49:55;63916.16;;;6.63;100.00
41636;BME280;27623;51.966;4.602;2023-01-10T14:52:28;63965.13;;;6.54;100.00
41636;BME280;27623;51.966;4.602;2023-01-10T14:55:02;63933.13;;;6.53;100.00
41636;BME280;27623;51.966;4.602;2023-01-10T14:57:28;63934.38;;;6.49;100.00
41636;BME280;27623;51.966;4.602;2023-01-10T15:00:12;63917.38;;;6.45;100.00
41636;BME280;27623;51.966;4.602;2023-01-10T15:02:43;63879.78;;;6.50;100.00
41636;BME280;27623;51.966;4.602;2023-01-10T15:05:26;63960.97;;;6.67;100.00
41636;BME280;27623;51.966;4.602;2023-01-10T15:07:53;63943.97;;;6.56;100.00
41636;BME280;27623;51.966;4.602;2023-01-10T15:10:23;63987.75;;;6.59;100.00